Terminal Aerodrome Forecast
Issued by NWS Wilmington, OH

Current Version | Previous Version | Graphics & Text | Print | Product List | Glossary On
Versions: 1 2 3 4 5 6 7 8 9 10 11 12 13 14 15 16 17 18 19 20 21 22
000
FTUS41 KILN 181500 AAA
TAFCMH
TAF AMD
KCMH 181512Z 1815/1912 31012G18KT P6SM BKN025
     FM181800 31012G20KT P6SM VCSH OVC025
      TEMPO 1819/1823 -SHRA
     FM182300 32012G18KT P6SM BKN018
     FM190200 33010KT P6SM OVC015
     FM191000 32004KT P6SM SCT025=

USA.gov is the U.S. government's official web portal to all federal, state and local government web resources and services.